Terminal Aerodrome Forecast
Issued by NWS Brownsville, TX

Home | Current Version | Previous Version | Text Only | Print | Product List | Glossary On
Versions: 1 2 3 4 5 6 7 8 9 10 11 12 13 14 15 16 17 18 19
202
FTUS44 KBRO 222330
TAFMFE
TAF
KMFE 222330Z 2300/2324 01005KT P6SM OVC009
     FM230600 14006KT 4SM BR OVC005
      TEMPO 2309/2313 1SM BR
     FM231500 15012KT 6SM BR BKN007
     FM231700 16016G22KT P6SM BKN015
     FM232200 14015KT P6SM BKN050=

USA.gov is the U.S. government's official web portal to all federal, state and local government web resources and services.